Time;durP1;ratioP1;P1;durP2;ratioP2;P2;SDS_P1;SDS_P2;PMS_P1;PMS_P2;Temp;Humidity;BMP_temperature;BMP_pressure;BME280_temperature;BME280_humidity;BME280_pressure;Samples;Min_cycle;Max_cycle;Signal;HPM_P1;HPM_P2
2022/05/28 00:00:18;;;;;;;0.57;0.45;;;20.60;64.40;;;;;;5105698;27;46582;-65
2022/05/28 00:02:46;;;;;;;1.40;0.57;;;20.60;64.40;;;;;;5105773;27;45204;-65
2022/05/28 00:05:14;;;;;;;0.90;0.50;;;20.60;64.60;;;;;;5105859;27;45218;-65
2022/05/28 00:07:41;;;;;;;1.35;0.73;;;20.60;64.40;;;;;;5102711;27;46155;-65
2022/05/28 00:10:11;;;;;;;1.85;0.50;;;20.60;64.50;;;;;;5107353;27;45155;-65
2022/05/28 00:12:38;;;;;;;1.45;0.70;;;20.60;64.60;;;;;;5097111;27;45544;-65
2022/05/28 00:15:06;;;;;;;0.90;0.50;;;20.60;64.70;;;;;;5106261;27;45255;-65
2022/05/28 00:17:33;;;;;;;0.50;0.38;;;20.60;64.60;;;;;;5109668;27;46315;-65
2022/05/28 00:20:00;;;;;;;2.42;0.60;;;20.50;64.60;;;;;;5109068;27;45173;-65
2022/05/28 00:22:29;;;;;;;1.10;0.50;;;20.50;64.70;;;;;;5109504;27;45257;-65
2022/05/28 00:24:56;;;;;;;1.27;0.45;;;20.60;64.80;;;;;;5111140;27;45465;-65
2022/05/28 00:27:23;;;;;;;1.02;0.50;;;20.50;64.40;;;;;;5108542;27;46263;-65
2022/05/28 00:29:51;;;;;;;1.20;0.40;;;20.50;64.50;;;;;;5109305;27;45357;-65
2022/05/28 00:32:19;;;;;;;0.90;0.50;;;20.50;64.90;;;;;;5108135;27;45509;-65
2022/05/28 00:34:46;;;;;;;0.98;0.50;;;20.60;64.90;;;;;;5107367;27;45378;-65
2022/05/28 00:37:12;;;;;;;2.03;0.60;;;20.60;64.50;;;;;;5109686;27;47313;-65
2022/05/28 00:39:41;;;;;;;1.00;0.50;;;20.50;64.80;;;;;;5109178;27;45743;-65
2022/05/28 00:42:08;;;;;;;0.73;0.50;;;20.50;64.70;;;;;;5106831;27;45185;-65
2022/05/28 00:44:35;;;;;;;1.52;0.50;;;20.50;64.50;;;;;;5104869;27;45266;-65
2022/05/28 00:47:02;;;;;;;1.85;0.55;;;20.50;64.40;;;;;;5107817;27;46525;-65
2022/05/28 00:49:32;;;;;;;1.35;0.52;;;20.60;64.70;;;;;;5108658;27;45210;-65
2022/05/28 00:52:01;;;;;;;1.15;0.43;;;20.60;64.90;;;;;;5105811;27;45299;-65
2022/05/28 00:54:32;;;;;;;2.17;0.63;;;20.60;64.70;;;;;;5116853;27;45378;-65
2022/05/28 00:57:00;;;;;;;0.95;0.50;;;20.60;64.50;;;;;;5114529;27;45439;-65
2022/05/28 00:59:27;;;;;;;0.90;0.60;;;20.60;64.70;;;;;;5108007;27;45217;-65
2022/05/28 01:01:59;;;;;;;1.10;0.50;;;20.60;64.70;;;;;;5105809;27;45482;-65
2022/05/28 01:04:33;;;;;;;1.20;0.50;;;20.50;64.60;;;;;;5109394;27;45567;-65
2022/05/28 01:07:09;;;;;;;1.35;0.50;;;20.50;64.70;;;;;;5100507;27;47402;-65
2022/05/28 01:09:46;;;;;;;1.52;0.65;;;20.50;64.70;;;;;;5106511;27;45184;-65
2022/05/28 01:12:19;;;;;;;1.50;0.65;;;20.50;64.50;;;;;;5107500;27;45222;-65
2022/05/28 01:14:58;;;;;;;0.90;0.55;;;20.50;64.70;;;;;;5106864;27;45226;-65
2022/05/28 01:17:31;;;;;;;1.17;0.50;;;20.50;64.80;;;;;;5109020;27;45306;-65
2022/05/28 01:20:06;;;;;;;0.47;0.30;;;20.50;64.80;;;;;;5107851;27;46747;-65
2022/05/28 01:22:45;;;;;;;0.60;0.52;;;20.50;64.70;;;;;;5108481;27;45268;-65
2022/05/28 01:25:19;;;;;;;0.70;0.50;;;20.50;64.60;;;;;;5109904;27;45164;-65
2022/05/28 01:27:51;;;;;;;1.17;0.73;;;20.50;64.90;;;;;;5106119;27;46286;-65
2022/05/28 01:30:19;;;;;;;1.42;0.65;;;20.50;65.60;;;;;;5106168;27;45224;-65
2022/05/28 01:32:50;;;;;;;1.08;0.38;;;20.50;65.60;;;;;;5107935;27;45192;-65
2022/05/28 01:35:19;;;;;;;1.00;0.45;;;20.50;65.20;;;;;;5108138;27;45144;-65
2022/05/28 01:37:47;;;;;;;0.80;0.40;;;20.50;65.00;;;;;;5108970;27;45398;-65
2022/05/28 01:40:16;;;;;;;1.70;0.77;;;20.50;65.40;;;;;;5106512;27;45307;-65
2022/05/28 01:42:49;;;;;;;0.65;0.40;;;20.50;65.00;;;;;;5109061;27;45152;-65
2022/05/28 01:45:19;;;;;;;0.93;0.68;;;20.50;65.00;;;;;;5105109;27;45470;-65
2022/05/28 01:47:46;;;;;;;2.45;0.50;;;20.50;64.80;;;;;;5105824;27;47185;-65
2022/05/28 01:50:17;;;;;;;1.52;0.52;;;20.50;65.00;;;;;;5105120;27;45168;-65
2022/05/28 01:52:44;;;;;;;1.33;0.45;;;20.50;64.90;;;;;;5102114;27;45328;-65
2022/05/28 01:55:15;;;;;;;2.08;0.75;;;20.50;65.00;;;;;;5114619;27;45175;-65
2022/05/28 01:57:42;;;;;;;1.42;0.60;;;20.50;64.50;;;;;;5108723;27;45365;-65
2022/05/28 02:00:11;;;;;;;2.30;0.75;;;20.50;64.80;;;;;;5104960;27;45206;-65
2022/05/28 02:02:39;;;;;;;1.75;0.50;;;20.50;64.90;;;;;;5106396;27;45873;-65
2022/05/28 02:05:06;;;;;;;1.67;0.45;;;20.50;64.90;;;;;;5107891;27;45367;-65
2022/05/28 02:07:33;;;;;;;0.90;0.60;;;20.50;65.10;;;;;;5103932;27;45436;-65
2022/05/28 02:10:03;;;;;;;2.30;0.85;;;20.50;65.10;;;;;;5107587;27;45333;-65
2022/05/28 02:12:32;;;;;;;1.00;0.60;;;20.50;65.20;;;;;;5106591;27;45283;-65
2022/05/28 02:15:15;;;;;;;2.45;0.73;;;20.50;65.20;;;;;;5106290;27;45552;-65
2022/05/28 02:17:48;;;;;;;1.33;0.63;;;20.50;64.70;;;;;;5106235;27;47739;-65
2022/05/28 02:20:22;;;;;;;1.52;0.50;;;20.50;64.90;;;;;;5109015;27;45251;-65
2022/05/28 02:22:55;;;;;;;1.80;0.52;;;20.50;64.90;;;;;;5106264;27;45215;-65
2022/05/28 02:25:27;;;;;;;1.05;0.60;;;20.50;65.00;;;;;;5100772;27;45363;-65
2022/05/28 02:27:56;;;;;;;2.05;0.80;;;20.50;65.10;;;;;;5108158;27;46517;-65
2022/05/28 02:30:24;;;;;;;2.03;0.60;;;20.50;65.20;;;;;;5106175;27;45816;-65
2022/05/28 02:33:01;;;;;;;1.45;0.73;;;20.50;64.90;;;;;;5106093;27;45200;-65
2022/05/28 02:35:28;;;;;;;1.70;0.85;;;20.50;65.10;;;;;;5101523;27;45176;-65
2022/05/28 02:37:54;;;;;;;1.08;0.45;;;20.50;65.20;;;;;;5107633;27;46620;-66
2022/05/28 02:40:22;;;;;;;1.40;0.57;;;20.50;65.20;;;;;;5104154;27;45519;-65
2022/05/28 02:42:49;;;;;;;1.27;0.60;;;20.50;65.20;;;;;;5108182;27;45253;-65
2022/05/28 02:45:16;;;;;;;1.70;0.90;;;20.50;65.00;;;;;;5107307;27;45194;-65
2022/05/28 02:47:45;;;;;;;1.13;0.70;;;20.50;64.90;;;;;;5105561;27;46380;-65
2022/05/28 02:50:12;;;;;;;2.33;0.80;;;20.50;64.90;;;;;;5106652;27;45218;-65
2022/05/28 02:52:39;;;;;;;1.17;0.60;;;20.50;64.90;;;;;;5106722;27;45258;-65
2022/05/28 02:55:06;;;;;;;1.02;0.68;;;20.50;65.00;;;;;;5109091;27;45346;-65
2022/05/28 02:57:33;;;;;;;1.48;0.60;;;20.50;64.70;;;;;;5105561;27;46144;-65
2022/05/28 03:00:00;;;;;;;3.45;0.70;;;20.50;65.10;;;;;;5104796;27;45320;-66
2022/05/28 03:02:28;;;;;;;1.40;0.77;;;20.50;65.00;;;;;;5105923;27;45238;-65
2022/05/28 03:04:56;;;;;;;0.82;0.50;;;20.50;64.80;;;;;;5105006;27;45464;-66
2022/05/28 03:07:23;;;;;;;1.35;0.68;;;20.50;65.00;;;;;;5104720;27;45994;-65
2022/05/28 03:09:50;;;;;;;1.58;0.60;;;20.50;65.20;;;;;;5107896;27;45212;-65
2022/05/28 03:12:17;;;;;;;1.17;0.50;;;20.50;65.20;;;;;;5104363;27;45219;-65
2022/05/28 03:14:44;;;;;;;2.50;0.80;;;20.50;65.20;;;;;;5107764;27;45258;-65
2022/05/28 03:17:11;;;;;;;0.75;0.40;;;20.50;65.20;;;;;;5102954;27;46204;-65
2022/05/28 03:19:38;;;;;;;2.42;0.90;;;20.50;65.40;;;;;;5106261;27;46651;-65
2022/05/28 03:22:06;;;;;;;2.03;0.60;;;20.50;65.20;;;;;;5106106;27;45257;-65
2022/05/28 03:24:32;;;;;;;1.02;0.38;;;20.50;66.40;;;;;;5105924;27;45444;-65
2022/05/28 03:26:59;;;;;;;1.40;0.60;;;20.40;65.20;;;;;;5107518;27;46372;-65
2022/05/28 03:29:27;;;;;;;0.88;0.50;;;20.50;66.00;;;;;;5106613;27;45310;-65
2022/05/28 03:31:54;;;;;;;1.33;0.50;;;20.40;65.60;;;;;;5107341;27;45802;-65
2022/05/28 03:34:21;;;;;;;2.25;0.73;;;20.50;65.30;;;;;;5104479;27;46911;-65
2022/05/28 03:36:48;;;;;;;1.17;0.60;;;20.50;65.70;;;;;;5107220;27;47936;-65
2022/05/28 03:39:16;;;;;;;1.10;0.63;;;20.50;65.50;;;;;;5105760;27;45222;-65
2022/05/28 03:41:43;;;;;;;0.50;0.50;;;20.50;65.60;;;;;;5106754;27;45230;-65
2022/05/28 03:44:11;;;;;;;1.95;0.80;;;20.50;65.80;;;;;;5106565;27;45521;-65
2022/05/28 03:46:38;;;;;;;1.52;0.65;;;20.50;65.70;;;;;;5104138;27;47389;-65
2022/05/28 03:49:07;;;;;;;1.17;0.55;;;20.50;65.60;;;;;;5101910;27;45330;-65
2022/05/28 03:51:34;;;;;;;2.65;0.70;;;20.50;65.70;;;;;;5110881;27;45433;-65
2022/05/28 03:54:02;;;;;;;1.67;0.55;;;20.50;65.70;;;;;;5109133;27;45446;-65
2022/05/28 03:56:35;;;;;;;2.38;0.82;;;20.50;65.50;;;;;;5111364;27;48383;-65
2022/05/28 03:59:02;;;;;;;1.25;0.75;;;20.50;65.60;;;;;;5106379;27;45602;-65
2022/05/28 04:01:29;;;;;;;1.30;0.60;;;20.50;65.60;;;;;;5104933;27;45299;-65
2022/05/28 04:03:55;;;;;;;1.60;0.60;;;20.50;65.70;;;;;;5110849;27;45371;-65
2022/05/28 04:06:23;;;;;;;2.17;0.80;;;20.50;65.90;;;;;;5106114;27;46596;-65
2022/05/28 04:08:49;;;;;;;1.58;0.70;;;20.50;65.70;;;;;;5110124;27;45657;-65
2022/05/28 04:11:17;;;;;;;2.38;0.80;;;20.40;65.80;;;;;;5109967;27;45239;-65
2022/05/28 04:13:45;;;;;;;1.00;0.70;;;20.40;65.60;;;;;;5107976;27;45192;-65
2022/05/28 04:16:12;;;;;;;2.28;0.73;;;20.50;65.70;;;;;;5303984;22;47274;-64
2022/05/28 04:18:40;;;;;;;1.83;0.68;;;20.50;65.80;;;;;;5110071;27;45312;-64
2022/05/28 04:21:07;;;;;;;2.53;0.70;;;20.40;65.70;;;;;;5111055;27;45525;-64
2022/05/28 04:23:34;;;;;;;1.75;0.70;;;20.40;65.80;;;;;;5109381;27;45405;-64
2022/05/28 04:26:01;;;;;;;1.52;0.60;;;20.40;65.90;;;;;;5109410;27;45242;-65
2022/05/28 04:28:28;;;;;;;1.20;0.70;;;20.50;66.40;;;;;;5108426;27;45355;-65
2022/05/28 04:30:56;;;;;;;1.02;0.70;;;20.40;65.70;;;;;;5108235;27;45281;-65
2022/05/28 04:33:23;;;;;;;1.80;0.70;;;20.40;65.90;;;;;;5110390;27;45196;-65
2022/05/28 04:35:50;;;;;;;1.77;0.60;;;20.50;65.60;;;;;;5109859;27;45478;-64
2022/05/28 04:38:16;;;;;;;2.15;0.77;;;20.40;66.00;;;;;;5109022;27;45170;-64
2022/05/28 04:40:43;;;;;;;0.88;0.60;;;20.40;66.00;;;;;;5105242;27;45219;-64
2022/05/28 04:43:10;;;;;;;1.27;0.60;;;20.50;65.90;;;;;;5108399;27;45303;-64
2022/05/28 04:45:37;;;;;;;2.05;0.88;;;20.50;66.20;;;;;;5110548;27;47418;-65
2022/05/28 04:48:06;;;;;;;3.03;1.00;;;20.50;66.10;;;;;;5106949;27;45151;-65
2022/05/28 04:50:33;;;;;;;1.83;0.82;;;20.50;65.90;;;;;;5108086;27;45235;-65
2022/05/28 04:53:00;;;;;;;2.70;0.68;;;20.50;65.70;;;;;;5109897;27;45460;-65
2022/05/28 04:55:26;;;;;;;1.20;0.65;;;20.50;65.60;;;;;;5109815;27;47956;-65
2022/05/28 04:57:54;;;;;;;1.75;0.70;;;20.50;65.40;;;;;;5107641;27;45305;-65
2022/05/28 05:00:23;;;;;;;1.63;0.60;;;20.40;65.30;;;;;;5102172;27;45344;-65
2022/05/28 05:02:50;;;;;;;3.00;0.90;;;20.40;64.90;;;;;;5107905;27;45205;-65
2022/05/28 05:05:19;;;;;;;1.77;0.75;;;20.50;65.40;;;;;;5108313;27;46912;-64
2022/05/28 05:07:46;;;;;;;2.35;0.80;;;20.40;65.00;;;;;;5106532;27;45331;-65
2022/05/28 05:10:13;;;;;;;2.17;0.80;;;20.50;65.60;;;;;;5109250;27;45455;-65
2022/05/28 05:12:40;;;;;;;1.60;0.80;;;20.40;65.90;;;;;;5108799;27;45406;-65
2022/05/28 05:15:08;;;;;;;4.32;1.23;;;20.40;65.80;;;;;;5106888;27;46231;-65
2022/05/28 05:17:35;;;;;;;2.20;0.70;;;20.50;65.90;;;;;;5110064;27;45624;-65
2022/05/28 05:20:02;;;;;;;3.35;1.20;;;20.40;66.30;;;;;;5109429;27;45204;-65
2022/05/28 05:22:30;;;;;;;1.38;0.68;;;20.40;66.10;;;;;;5106766;27;45434;-65
2022/05/28 05:24:57;;;;;;;1.55;0.88;;;20.40;66.30;;;;;;5106583;27;47297;-65
2022/05/28 05:27:23;;;;;;;2.25;0.90;;;20.50;66.60;;;;;;5108553;27;45249;-64
2022/05/28 05:29:50;;;;;;;3.30;1.10;;;20.50;66.50;;;;;;5106279;27;45519;-64
2022/05/28 05:32:17;;;;;;;2.88;1.00;;;20.50;66.50;;;;;;5106822;27;45645;-64
2022/05/28 05:34:45;;;;;;;2.78;0.90;;;20.50;66.60;;;;;;5110271;27;46010;-64
2022/05/28 05:37:12;;;;;;;2.17;0.85;;;20.50;66.80;;;;;;5107829;27;45436;-64
2022/05/28 05:39:40;;;;;;;1.38;0.70;;;20.50;66.70;;;;;;5109299;27;45243;-64
2022/05/28 05:42:07;;;;;;;1.70;0.63;;;20.50;66.60;;;;;;5106610;27;45201;-65
2022/05/28 05:44:34;;;;;;;2.88;1.00;;;20.50;66.80;;;;;;5113510;27;46185;-65
2022/05/28 05:47:01;;;;;;;3.90;1.08;;;20.50;66.80;;;;;;5106473;27;45326;-65
2022/05/28 05:49:28;;;;;;;2.88;1.30;;;20.50;66.80;;;;;;5107885;27;45624;-65
2022/05/28 05:51:55;;;;;;;2.20;0.82;;;20.60;67.00;;;;;;5113445;27;45615;-65
2022/05/28 05:54:24;;;;;;;1.08;0.65;;;20.60;67.00;;;;;;5108878;27;46420;-65
2022/05/28 05:56:52;;;;;;;2.15;0.70;;;20.60;67.00;;;;;;5113817;27;45266;-65
2022/05/28 05:59:20;;;;;;;1.95;0.65;;;20.60;67.10;;;;;;5098381;27;45568;-65
2022/05/28 06:01:47;;;;;;;3.10;0.70;;;20.60;67.20;;;;;;5106404;27;45385;-65
2022/05/28 06:04:13;;;;;;;3.42;0.70;;;20.60;67.30;;;;;;5107225;27;45268;-65
2022/05/28 06:06:40;;;;;;;1.17;0.52;;;20.60;67.30;;;;;;5104084;27;45248;-65
2022/05/28 06:09:08;;;;;;;2.45;1.00;;;20.60;67.50;;;;;;5106170;27;45278;-65
2022/05/28 06:11:35;;;;;;;1.65;0.80;;;20.60;67.50;;;;;;5105563;27;45422;-65
2022/05/28 06:14:03;;;;;;;2.35;0.77;;;20.60;67.70;;;;;;5104546;27;46600;-65
2022/05/28 06:16:30;;;;;;;3.90;0.85;;;20.50;67.70;;;;;;5105074;27;46267;-65
2022/05/28 06:18:57;;;;;;;1.23;0.60;;;20.60;67.70;;;;;;5111592;27;45210;-65
2022/05/28 06:21:25;;;;;;;2.20;0.90;;;20.50;67.70;;;;;;5106785;27;45332;-65
2022/05/28 06:23:52;;;;;;;3.15;1.00;;;20.60;67.90;;;;;;5107744;27;47399;-65
2022/05/28 06:26:19;;;;;;;2.33;0.77;;;20.50;67.90;;;;;;5103086;27;45322;-65
2022/05/28 06:28:46;;;;;;;3.05;0.77;;;20.50;67.80;;;;;;5105951;27;45248;-66
2022/05/28 06:31:15;;;;;;;1.90;0.70;;;20.50;68.00;;;;;;5105485;27;45198;-65
2022/05/28 06:33:42;;;;;;;1.92;0.63;;;20.60;68.00;;;;;;5102353;27;46012;-66
2022/05/28 06:36:10;;;;;;;4.13;0.85;;;20.60;67.90;;;;;;5109289;27;45171;-65
2022/05/28 06:38:37;;;;;;;2.38;0.82;;;20.60;67.80;;;;;;5105267;27;45277;-66
2022/05/28 06:41:05;;;;;;;1.58;0.70;;;20.60;67.80;;;;;;5107573;27;45228;-65
2022/05/28 06:43:32;;;;;;;2.47;0.75;;;20.60;67.80;;;;;;5108042;27;46189;-65
2022/05/28 06:46:01;;;;;;;2.03;0.52;;;20.60;67.70;;;;;;5105000;27;45730;-66
2022/05/28 06:48:29;;;;;;;1.77;0.80;;;20.60;67.80;;;;;;5107284;27;45218;-66
2022/05/28 06:51:05;;;;;;;2.72;0.65;;;20.60;67.70;;;;;;5105175;27;45447;-65
2022/05/28 06:53:34;;;;;;;3.28;0.77;;;20.60;67.50;;;;;;5105485;27;48019;-65
2022/05/28 06:56:01;;;;;;;2.00;0.70;;;20.60;67.60;;;;;;5105506;27;45530;-65
2022/05/28 06:58:29;;;;;;;1.85;0.90;;;20.60;67.50;;;;;;5106092;27;45459;-65
2022/05/28 07:00:56;;;;;;;1.83;0.50;;;20.60;67.50;;;;;;5095316;27;45347;-63
2022/05/28 07:03:25;;;;;;;8.50;1.38;;;20.60;67.60;;;;;;5103140;27;45979;-63
2022/05/28 07:05:55;;;;;;;6.47;0.90;;;20.70;67.70;;;;;;5100490;27;45257;-63
2022/05/28 07:08:23;;;;;;;5.53;1.25;;;20.60;67.60;;;;;;5105860;27;45201;-66
2022/05/28 07:10:51;;;;;;;5.65;0.95;;;20.60;67.70;;;;;;5098602;27;45412;-65
2022/05/28 07:13:20;;;;;;;2.10;0.68;;;20.60;67.70;;;;;;5101644;27;46548;-65
2022/05/28 07:15:47;;;;;;;3.30;0.65;;;20.60;68.00;;;;;;5101899;27;45611;-65
2022/05/28 07:18:14;;;;;;;2.75;0.60;;;20.60;67.70;;;;;;5103140;27;45619;-65
2022/05/28 07:20:41;;;;;;;2.28;0.60;;;20.60;67.90;;;;;;5106633;27;45483;-65
2022/05/28 07:23:15;;;;;;;5.30;0.73;;;20.60;67.70;;;;;;5093542;27;47200;-66
2022/05/28 07:25:43;;;;;;;2.58;0.75;;;20.60;68.10;;;;;;5099310;27;45266;-65
2022/05/28 07:28:27;;;;;;;2.03;0.80;;;20.60;67.80;;;;;;5101222;27;45452;-65
2022/05/28 07:30:55;;;;;;;2.53;0.80;;;20.60;67.90;;;;;;5102954;27;45382;-66
2022/05/28 07:33:24;;;;;;;1.50;0.50;;;20.60;67.70;;;;;;5097289;27;46435;-65
2022/05/28 07:35:52;;;;;;;1.48;0.50;;;20.60;68.00;;;;;;5097001;27;45346;-65
2022/05/28 07:38:20;;;;;;;2.97;0.80;;;20.60;67.60;;;;;;5100458;27;45373;-65
2022/05/28 07:40:47;;;;;;;2.33;0.65;;;20.60;67.40;;;;;;5097560;27;45209;-65
2022/05/28 07:43:14;;;;;;;1.60;0.90;;;20.70;67.20;;;;;;5101981;27;47148;-65
2022/05/28 07:45:43;;;;;;;2.03;0.82;;;20.70;67.10;;;;;;5103905;27;45218;-65
2022/05/28 07:48:12;;;;;;;3.65;0.80;;;20.70;66.80;;;;;;5104891;27;45355;-65
2022/05/28 07:50:39;;;;;;;2.25;0.60;;;20.70;66.60;;;;;;5094724;27;46005;-65
2022/05/28 07:53:07;;;;;;;1.75;0.60;;;20.70;66.60;;;;;;5099791;27;46944;-65
2022/05/28 07:55:35;;;;;;;1.55;0.60;;;20.70;66.50;;;;;;5100741;27;45425;-65
2022/05/28 07:58:07;;;;;;;2.25;0.63;;;20.70;66.30;;;;;;5103711;27;45365;-65
2022/05/28 08:00:37;;;;;;;2.25;0.50;;;20.70;66.30;;;;;;5103481;27;45385;-65
2022/05/28 08:03:03;;;;;;;3.67;0.63;;;20.70;66.30;;;;;;5101009;27;46202;-65
2022/05/28 08:05:30;;;;;;;2.03;0.52;;;20.70;66.40;;;;;;5101512;27;45321;-65
2022/05/28 08:07:57;;;;;;;1.50;0.43;;;20.70;66.40;;;;;;5104023;27;45549;-65
2022/05/28 08:10:24;;;;;;;1.75;0.60;;;20.70;66.70;;;;;;5101070;27;45260;-65
2022/05/28 08:12:52;;;;;;;1.25;0.40;;;20.70;66.60;;;;;;5103886;27;46319;-65
2022/05/28 08:15:19;;;;;;;1.25;0.50;;;20.70;66.70;;;;;;5101049;27;45562;-65
2022/05/28 08:17:46;;;;;;;1.75;0.65;;;20.70;66.80;;;;;;5100228;27;45263;-65
2022/05/28 08:20:13;;;;;;;1.13;0.47;;;20.70;66.70;;;;;;5100072;27;45414;-65
2022/05/28 08:25:24;;;;;;;4.15;0.90;;;20.70;66.90;;;;;;5103090;27;45367;-64
2022/05/28 08:27:52;;;;;;;1.13;0.40;;;20.20;64.20;;;;;;5093319;27;45621;-64
2022/05/28 08:30:19;;;;;;;2.92;0.52;;;20.00;61.60;;;;;;5091813;27;45257;-64
2022/05/28 08:32:46;;;;;;;1.23;0.55;;;19.80;60.70;;;;;;5116450;27;48279;-64
2022/05/28 08:35:13;;;;;;;3.22;0.77;;;19.70;60.70;;;;;;5127191;27;45292;-64
2022/05/28 08:37:40;;;;;;;1.15;0.50;;;19.60;60.20;;;;;;5121253;27;45245;-64
2022/05/28 08:40:08;;;;;;;2.97;0.70;;;19.60;61.20;;;;;;5110496;27;45342;-64
2022/05/28 08:42:35;;;;;;;2.05;0.50;;;19.60;60.30;;;;;;5107254;27;46185;-64
2022/05/28 08:45:06;;;;;;;2.60;0.77;;;19.40;60.70;;;;;;5108663;27;45292;-63
2022/05/28 08:47:37;;;;;;;1.60;0.50;;;19.40;61.00;;;;;;5109476;27;46825;-64
2022/05/28 08:50:06;;;;;;;3.38;0.70;;;19.40;60.60;;;;;;5120444;27;45339;-63
2022/05/28 08:52:39;;;;;;;4.38;1.17;;;19.30;60.30;;;;;;5131595;27;47385;-64
2022/05/28 08:55:09;;;;;;;1.95;0.50;;;19.40;60.40;;;;;;5110387;27;45125;-63
2022/05/28 08:57:48;;;;;;;1.55;0.60;;;19.50;59.60;;;;;;5109758;27;45246;-63
2022/05/28 09:00:19;;;;;;;4.07;0.60;;;19.40;59.00;;;;;;5106409;27;45338;-64
2022/05/28 09:02:49;;;;;;;3.03;0.45;;;19.30;59.40;;;;;;5109896;27;45222;-63
2022/05/28 09:05:27;;;;;;;3.42;0.80;;;19.50;57.40;;;;;;5110490;27;45284;-63
2022/05/28 09:07:58;;;;;;;4.45;0.68;;;19.60;56.10;;;;;;5106941;27;45196;-63
2022/05/28 09:10:25;;;;;;;3.15;0.60;;;19.50;56.80;;;;;;5110137;27;45220;-63
2022/05/28 09:12:56;;;;;;;2.28;0.65;;;19.60;56.20;;;;;;5108269;27;46367;-63
2022/05/28 09:15:24;;;;;;;4.13;0.80;;;19.60;55.70;;;;;;5107401;27;45280;-63
2022/05/28 09:17:56;;;;;;;2.35;0.40;;;19.60;55.80;;;;;;5110376;27;45227;-63
2022/05/28 09:20:31;;;;;;;3.80;0.80;;;19.60;55.10;;;;;;5110221;27;45279;-63
2022/05/28 09:22:58;;;;;;;3.53;0.70;;;19.60;55.40;;;;;;5109037;27;45259;-63
2022/05/28 09:25:30;;;;;;;2.38;0.60;;;19.70;54.70;;;;;;5108191;27;45378;-63
2022/05/28 09:28:11;;;;;;;3.75;0.70;;;19.70;56.10;;;;;;5110551;27;45237;-63
2022/05/28 09:30:47;;;;;;;3.97;0.68;;;19.70;54.60;;;;;;5110221;27;45222;-63
2022/05/28 09:33:44;;;;;;;4.20;0.60;;;19.60;54.20;;;;;;5091707;27;47533;-63
2022/05/28 09:36:16;;;;;;;4.40;0.70;;;19.60;53.80;;;;;;5110112;27;45206;-63
2022/05/28 09:39:00;;;;;;;3.70;0.70;;;19.60;53.10;;;;;;5109823;27;45196;-64
2022/05/28 09:41:53;;;;;;;1.50;0.60;;;19.50;54.20;;;;;;5109443;27;45183;-63
2022/05/28 09:44:34;;;;;;;3.00;0.60;;;19.50;54.30;;;;;;5109209;27;47735;-63
2022/05/28 09:47:09;;;;;;;4.45;0.60;;;19.60;52.90;;;;;;5105024;27;45181;-63
2022/05/28 09:49:47;;;;;;;0.82;0.43;;;19.60;53.70;;;;;;5107854;27;45155;-63
2022/05/28 09:52:14;;;;;;;2.03;0.88;;;19.50;52.70;;;;;;5110095;27;45647;-63
2022/05/28 09:54:40;;;;;;;2.08;0.60;;;19.50;53.70;;;;;;5110952;27;45454;-63
2022/05/28 09:57:10;;;;;;;2.35;0.70;;;19.60;53.80;;;;;;5122140;27;45273;-63
2022/05/28 09:59:49;;;;;;;0.95;0.32;;;19.70;52.80;;;;;;5107690;27;45348;-63
2022/05/28 10:02:21;;;;;;;3.35;0.70;;;19.70;54.00;;;;;;5120323;27;45417;-63
2022/05/28 10:04:52;;;;;;;4.95;0.75;;;19.70;52.20;;;;;;5114603;27;45452;-64
2022/05/28 10:07:30;;;;;;;3.10;0.60;;;19.70;51.80;;;;;;5108556;27;45439;-63
2022/05/28 10:09:57;;;;;;;2.28;0.65;;;19.60;51.10;;;;;;5099651;27;45145;-64
2022/05/28 10:12:26;;;;;;;2.67;0.68;;;19.60;52.00;;;;;;5097345;27;45249;-64
2022/05/28 10:15:01;;;;;;;1.50;0.50;;;19.70;52.60;;;;;;5106957;27;47904;-64
2022/05/28 10:17:31;;;;;;;3.50;0.70;;;19.70;52.40;;;;;;5109512;27;45230;-64
2022/05/28 10:19:58;;;;;;;2.42;0.60;;;19.70;51.40;;;;;;5105946;27;45306;-63
2022/05/28 10:22:27;;;;;;;2.42;0.60;;;19.70;49.20;;;;;;5100292;27;45287;-64
2022/05/28 10:24:58;;;;;;;3.10;0.63;;;19.60;50.70;;;;;;5097620;27;47391;-64
2022/05/28 10:27:29;;;;;;;3.60;0.97;;;19.70;51.20;;;;;;5104113;27;45394;-62
2022/05/28 10:29:58;;;;;;;3.13;0.50;;;19.50;47.00;;;;;;5098615;27;45081;-64
2022/05/28 10:32:32;;;;;;;5.03;0.65;;;19.40;49.60;;;;;;5102966;27;45459;-64
2022/05/28 10:35:01;;;;;;;2.05;0.60;;;19.40;49.90;;;;;;5107476;27;46164;-64
2022/05/28 10:37:28;;;;;;;4.32;0.90;;;19.30;50.30;;;;;;5100539;27;45175;-64
2022/05/28 10:40:07;;;;;;;3.85;0.65;;;19.30;49.50;;;;;;5103963;27;45302;-64
2022/05/28 10:42:33;;;;;;;6.07;0.77;;;19.40;50.60;;;;;;5106352;27;45206;-64
2022/05/28 10:45:00;;;;;;;5.15;0.82;;;19.30;49.90;;;;;;5104847;27;47596;-64
2022/05/28 10:47:39;;;;;;;1.35;0.50;;;19.30;51.10;;;;;;5104634;27;45497;-64
2022/05/28 10:50:17;;;;;;;1.75;0.60;;;19.40;50.50;;;;;;5101589;27;45331;-66
2022/05/28 10:52:55;;;;;;;3.90;0.80;;;19.50;50.90;;;;;;5106110;27;45359;-64
2022/05/28 10:55:27;;;;;;;3.67;0.73;;;19.50;50.30;;;;;;5101582;27;45982;-64
2022/05/28 10:58:11;;;;;;;0.30;0.30;;;19.30;50.30;;;;;;5105899;27;45290;-63
2022/05/28 11:00:52;;;;;;;2.97;0.60;;;19.40;49.40;;;;;;5106825;27;45314;-64
2022/05/28 11:03:52;;;;;;;3.53;0.65;;;19.30;51.90;;;;;;5100307;27;45298;-65
2022/05/28 11:06:53;;;;;;;2.08;0.57;;;19.20;52.00;;;;;;5085828;27;45500;-64
2022/05/28 11:09:28;;;;;;;2.33;0.50;;;19.30;52.30;;;;;;5094659;27;45230;-64
2022/05/28 11:12:05;;;;;;;1.80;0.50;;;19.30;48.70;;;;;;5103177;27;45374;-65
2022/05/28 11:14:57;;;;;;;2.45;0.50;;;19.40;50.00;;;;;;5106748;27;45337;-65
2022/05/28 11:17:44;;;;;;;2.63;0.63;;;19.60;51.60;;;;;;5098340;27;46187;-66
2022/05/28 11:20:20;;;;;;;2.92;0.50;;;19.70;51.80;;;;;;5105253;27;45609;-65
2022/05/28 11:23:03;;;;;;;3.20;0.60;;;20.00;47.10;;;;;;5107567;27;45234;-65
2022/05/28 11:25:40;;;;;;;5.03;0.80;;;20.20;50.10;;;;;;5099990;27;45257;-65
2022/05/28 11:28:31;;;;;;;3.33;0.55;;;20.00;49.20;;;;;;5105453;27;47304;-65
2022/05/28 11:31:04;;;;;;;4.10;0.75;;;20.20;47.90;;;;;;5105671;27;45155;-65
2022/05/28 11:33:36;;;;;;;2.60;0.57;;;20.00;54.20;;;;;;5106228;27;45232;-65
2022/05/28 11:36:09;;;;;;;1.50;0.70;;;20.30;50.00;;;;;;5105109;27;45339;-65
2022/05/28 11:38:42;;;;;;;4.30;1.00;;;20.40;51.70;;;;;;5105636;27;45228;-65
2022/05/28 11:41:16;;;;;;;3.17;0.70;;;20.10;52.60;;;;;;5106337;27;45986;-65
2022/05/28 11:43:49;;;;;;;2.22;0.60;;;20.10;51.60;;;;;;5101671;27;45252;-65
2022/05/28 11:46:25;;;;;;;1.95;0.50;;;20.30;52.00;;;;;;5103921;27;45383;-65
2022/05/28 11:51:52;;;;;;;2.30;0.88;;;20.10;50.40;;;;;;5100817;27;45582;-65
2022/05/28 11:54:33;;;;;;;3.95;0.90;;;20.40;52.90;;;;;;5096519;27;45362;-65
2022/05/28 11:57:04;;;;;;;2.22;0.60;;;20.60;57.60;;;;;;5110401;27;45230;-65
2022/05/28 11:59:32;;;;;;;2.90;0.80;;;20.90;58.60;;;;;;5105595;27;45518;-64
2022/05/28 12:02:04;;;;;;;7.28;1.00;;;21.20;58.30;;;;;;5106690;27;45430;-65
2022/05/28 12:04:31;;;;;;;2.60;0.60;;;21.30;55.50;;;;;;5105825;27;45388;-65
2022/05/28 12:07:02;;;;;;;7.85;1.08;;;21.20;56.00;;;;;;5108044;27;45356;-65
2022/05/28 12:09:33;;;;;;;2.53;0.85;;;21.20;56.30;;;;;;5107920;27;45430;-65
2022/05/28 12:12:15;;;;;;;3.53;0.73;;;21.20;52.00;;;;;;5106984;27;45791;-65
2022/05/28 12:14:47;;;;;;;3.67;0.90;;;20.90;55.10;;;;;;5119884;27;45323;-65
2022/05/28 12:17:26;;;;;;;3.67;1.00;;;20.70;57.80;;;;;;5114737;27;45432;-65
2022/05/28 12:19:55;;;;;;;3.67;0.70;;;20.10;46.90;;;;;;5108384;27;45246;-65
2022/05/28 12:22:25;;;;;;;3.78;0.63;;;20.00;49.30;;;;;;5108512;27;45581;-65
2022/05/28 12:25:19;;;;;;;3.22;0.70;;;20.00;51.00;;;;;;5110448;27;45149;-65
2022/05/28 12:27:49;;;;;;;16.98;1.67;;;19.90;54.10;;;;;;5106965;27;45592;-64
2022/05/28 12:30:30;;;;;;;11.63;1.38;;;20.10;52.60;;;;;;5107199;27;46234;-64
2022/05/28 12:32:58;;;;;;;5.70;1.10;;;20.20;54.40;;;;;;5109913;27;45229;-64
2022/05/28 12:35:35;;;;;;;10.77;0.88;;;20.30;55.10;;;;;;5109918;27;45213;-64
2022/05/28 12:38:14;;;;;;;5.55;1.13;;;20.10;50.70;;;;;;5107343;27;45186;-64
2022/05/28 12:40:52;;;;;;;5.85;0.80;;;20.10;55.90;;;;;;5104717;27;46660;-64
2022/05/28 12:43:26;;;;;;;4.70;0.90;;;20.10;54.30;;;;;;5105643;27;45390;-64
2022/05/28 12:45:55;;;;;;;2.55;0.60;;;20.10;54.90;;;;;;5107080;27;45418;-64
2022/05/28 12:48:24;;;;;;;10.52;1.30;;;20.10;55.50;;;;;;5107771;27;45432;-64
2022/05/28 12:51:15;;;;;;;6.85;1.35;;;20.10;54.30;;;;;;5109047;27;45725;-64
2022/05/28 12:53:52;;;;;;;5.47;1.00;;;20.00;53.30;;;;;;5094620;27;45185;-64
2022/05/28 12:56:28;;;;;;;4.38;0.70;;;20.00;53.30;;;;;;5104992;27;45251;-64
2022/05/28 12:59:08;;;;;;;4.53;0.80;;;20.10;53.50;;;;;;5100443;27;45473;-64
2022/05/28 13:01:36;;;;;;;3.42;0.73;;;19.80;51.40;;;;;;5101816;27;46296;-64
2022/05/28 13:04:12;;;;;;;2.67;0.57;;;19.90;54.10;;;;;;5104693;27;45641;-64
2022/05/28 13:06:46;;;;;;;2.30;0.75;;;20.00;53.80;;;;;;5103568;27;45690;-65